NCAR-RAP Real-Time Weather Data

Output produced by METARs form (10 April 2020  07:12 UTC)
found at http://weather.rap.ucar.edu/surface/
 
KSDF 100656Z 30013G23KT 10SM CLR 05/M06 A2997 RMK AO2 PK WND 31026/0620 SLP148 T00501056